Time;durP1;ratioP1;P1;durP2;ratioP2;P2;SDS_P1;SDS_P2;PMS_P1;PMS_P2;Temp;Humidity;BMP_temperature;BMP_pressure;BME280_temperature;BME280_humidity;BME280_pressure;Samples;Min_cycle;Max_cycle;Signal;HPM_P1;HPM_P2
2021/06/03 00:01:38;;;;;;;4.05;3.65;;;;;;;;;;4418051;32;20414;-58
2021/06/03 00:04:03;;;;;;;10.60;3.58;;;;;;;;;;4418028;32;20250;-58
2021/06/03 00:06:29;;;;;;;5.57;3.72;;;;;;;;;;4417973;32;20232;-58
2021/06/03 00:08:54;;;;;;;9.85;3.78;;;;;;;;;;4417685;32;20201;-59
2021/06/03 00:11:20;;;;;;;6.93;3.70;;;;;;;;;;4417335;32;20245;-58
2021/06/03 00:13:47;;;;;;;6.25;3.53;;;;;;;;;;4417859;32;20217;-56
2021/06/03 00:16:14;;;;;;;4.95;3.53;;;;;;;;;;4417821;32;20220;-56
2021/06/03 00:18:41;;;;;;;8.30;3.75;;;;;;;;;;4391072;32;20315;-56
2021/06/03 00:21:08;;;;;;;5.85;3.60;;;;;;;;;;4417366;32;20217;-56
2021/06/03 00:23:34;;;;;;;4.57;3.90;;;;;;;;;;4417639;32;20219;-56
2021/06/03 00:26:00;;;;;;;10.13;3.85;;;;;;;;;;4417233;32;20288;-56
2021/06/03 00:28:25;;;;;;;5.45;3.95;;;;;;;;;;4406098;32;20274;-56
2021/06/03 00:30:51;;;;;;;4.87;3.92;;;;;;;;;;4407128;32;20415;-56
2021/06/03 00:33:16;;;;;;;5.00;3.35;;;;;;;;;;4402348;32;20522;-58
2021/06/03 00:35:42;;;;;;;6.32;4.25;;;;;;;;;;4402600;32;20676;-58
2021/06/03 00:38:08;;;;;;;3.78;3.15;;;;;;;;;;4401944;32;20758;-57
2021/06/03 00:40:33;;;;;;;4.20;3.25;;;;;;;;;;4401899;32;20284;-57
2021/06/03 00:42:59;;;;;;;5.55;3.28;;;;;;;;;;4402661;32;20221;-57
2021/06/03 00:45:31;;;;;;;3.75;3.30;;;;;;;;;;4402460;32;20303;-59
2021/06/03 00:47:57;;;;;;;8.07;3.78;;;;;;;;;;4388904;32;20287;-57
2021/06/03 00:50:30;;;;;;;5.80;3.47;;;;;;;;;;4406910;32;20288;-57
2021/06/03 00:52:56;;;;;;;8.00;4.03;;;;;;;;;;4417835;32;20576;-58
2021/06/03 00:55:21;;;;;;;7.35;4.05;;;;;;;;;;4417362;32;20272;-57
2021/06/03 00:57:47;;;;;;;6.57;3.60;;;;;;;;;;4417620;32;20554;-58
2021/06/03 01:00:15;;;;;;;6.57;4.12;;;;;;;;;;4416634;32;20269;-58
2021/06/03 01:02:41;;;;;;;10.48;4.53;;;;;;;;;;4417725;32;20666;-56
2021/06/03 01:05:11;;;;;;;8.05;4.35;;;;;;;;;;4417343;32;20295;-56
2021/06/03 01:07:36;;;;;;;10.70;4.75;;;;;;;;;;4417500;32;20642;-56
2021/06/03 01:10:19;;;;;;;6.12;4.72;;;;;;;;;;4402944;32;20259;-57
2021/06/03 01:12:56;;;;;;;7.30;4.70;;;;;;;;;;4417778;32;20638;-57
2021/06/03 01:15:24;;;;;;;5.10;4.62;;;;;;;;;;4417284;32;20360;-59
2021/06/03 01:17:49;;;;;;;8.30;4.53;;;;;;;;;;4417315;32;20249;-58
2021/06/03 01:20:16;;;;;;;11.32;5.30;;;;;;;;;;4416872;32;20345;-57
2021/06/03 01:22:53;;;;;;;7.95;4.55;;;;;;;;;;4417131;32;20224;-56
2021/06/03 01:25:22;;;;;;;7.00;4.93;;;;;;;;;;4417564;32;20294;-56
2021/06/03 01:27:48;;;;;;;7.53;4.78;;;;;;;;;;4409622;32;20554;-56
2021/06/03 01:30:27;;;;;;;6.53;5.18;;;;;;;;;;4405187;32;20315;-56
2021/06/03 01:33:02;;;;;;;8.18;4.90;;;;;;;;;;4402179;32;20245;-57
2021/06/03 01:35:31;;;;;;;6.37;5.28;;;;;;;;;;4402180;32;20189;-57
2021/06/03 01:37:57;;;;;;;14.85;5.10;;;;;;;;;;4403241;32;20558;-58
2021/06/03 01:40:25;;;;;;;9.43;6.28;;;;;;;;;;4404159;32;20284;-58
2021/06/03 01:42:52;;;;;;;11.25;5.05;;;;;;;;;;4404556;32;20272;-58
2021/06/03 01:45:18;;;;;;;7.37;5.62;;;;;;;;;;4404865;32;20292;-57
2021/06/03 01:47:44;;;;;;;14.50;5.32;;;;;;;;;;4404535;32;20570;-56
2021/06/03 01:50:11;;;;;;;8.25;5.68;;;;;;;;;;4393886;32;20741;-57
2021/06/03 01:52:38;;;;;;;8.25;5.68;;;;;;;;;;4420146;32;20507;-56
2021/06/03 01:55:08;;;;;;;7.87;5.82;;;;;;;;;;4419599;32;20614;-56
2021/06/03 01:57:35;;;;;;;7.20;5.57;;;;;;;;;;4419724;32;20720;-58
2021/06/03 02:00:01;;;;;;;11.50;6.57;;;;;;;;;;4419734;32;20197;-58
2021/06/03 02:02:26;;;;;;;10.23;7.72;;;;;;;;;;4420078;32;20334;-58
2021/06/03 02:04:52;;;;;;;16.98;8.75;;;;;;;;;;4419972;32;20217;-57
2021/06/03 02:07:17;;;;;;;11.65;8.48;;;;;;;;;;4420357;32;20304;-58
2021/06/03 02:09:42;;;;;;;17.05;8.27;;;;;;;;;;4419935;32;20206;-58
2021/06/03 02:12:11;;;;;;;10.35;6.28;;;;;;;;;;4419903;32;20433;-58
2021/06/03 02:14:39;;;;;;;13.82;4.75;;;;;;;;;;4406825;32;20232;-57
2021/06/03 02:17:22;;;;;;;8.55;4.57;;;;;;;;;;4419977;32;20241;-58
2021/06/03 02:19:53;;;;;;;12.82;5.00;;;;;;;;;;4419706;32;20592;-56
2021/06/03 02:22:21;;;;;;;12.23;4.30;;;;;;;;;;4419664;32;20272;-56
2021/06/03 02:24:48;;;;;;;9.60;4.60;;;;;;;;;;4419447;32;20196;-58
2021/06/03 02:27:15;;;;;;;6.72;4.35;;;;;;;;;;4405708;32;20217;-57
2021/06/03 02:29:41;;;;;;;9.55;3.83;;;;;;;;;;4419509;32;20240;-59
2021/06/03 02:32:07;;;;;;;10.38;4.47;;;;;;;;;;4408466;32;20729;-57
2021/06/03 02:34:32;;;;;;;6.28;4.65;;;;;;;;;;4404589;32;20556;-57
2021/06/03 02:36:58;;;;;;;8.35;4.55;;;;;;;;;;4390651;32;20365;-57
2021/06/03 02:39:24;;;;;;;8.00;4.80;;;;;;;;;;4403957;32;20197;-57
2021/06/03 02:41:49;;;;;;;9.23;5.40;;;;;;;;;;4390479;32;20695;-55
2021/06/03 02:44:15;;;;;;;6.33;5.23;;;;;;;;;;4404212;32;20263;-57
2021/06/03 02:46:40;;;;;;;8.95;4.97;;;;;;;;;;4404299;32;20279;-56
2021/06/03 02:49:06;;;;;;;10.40;5.07;;;;;;;;;;4403624;32;20313;-58
2021/06/03 02:51:32;;;;;;;14.50;5.80;;;;;;;;;;4416775;32;20225;-57
2021/06/03 02:53:57;;;;;;;10.25;5.35;;;;;;;;;;4419052;32;20625;-58
2021/06/03 02:56:23;;;;;;;12.00;5.12;;;;;;;;;;4419078;32;20244;-56
2021/06/03 02:58:48;;;;;;;9.70;5.60;;;;;;;;;;4419213;32;20292;-57
2021/06/03 03:01:14;;;;;;;10.80;6.00;;;;;;;;;;4419054;32;20559;-58
2021/06/03 03:03:39;;;;;;;6.57;5.87;;;;;;;;;;4419060;32;20627;-58
2021/06/03 03:06:05;;;;;;;13.70;7.20;;;;;;;;;;4418811;32;20554;-58
2021/06/03 03:08:31;;;;;;;11.07;6.70;;;;;;;;;;4418570;32;20570;-58
2021/06/03 03:10:59;;;;;;;10.05;7.45;;;;;;;;;;4418700;32;20293;-58
2021/06/03 03:13:24;;;;;;;15.77;7.43;;;;;;;;;;4418831;32;20269;-58
2021/06/03 03:15:50;;;;;;;7.85;7.07;;;;;;;;;;4418713;32;20268;-58
2021/06/03 03:18:16;;;;;;;8.63;5.70;;;;;;;;;;4418866;32;20233;-58
2021/06/03 03:20:41;;;;;;;8.38;5.35;;;;;;;;;;4418587;32;20809;-59
2021/06/03 03:23:09;;;;;;;8.25;5.68;;;;;;;;;;4404546;32;20783;-58
2021/06/03 03:25:35;;;;;;;7.63;5.20;;;;;;;;;;4418499;32;20193;-58
2021/06/03 03:28:03;;;;;;;6.93;5.32;;;;;;;;;;4404551;32;20233;-58
2021/06/03 03:30:30;;;;;;;12.25;5.53;;;;;;;;;;4418088;32;20260;-59
2021/06/03 03:32:56;;;;;;;12.70;5.90;;;;;;;;;;4403483;32;20350;-58
2021/06/03 03:35:22;;;;;;;10.18;5.40;;;;;;;;;;4403244;32;20268;-59
2021/06/03 03:37:48;;;;;;;11.48;5.43;;;;;;;;;;4403503;32;20535;-58
2021/06/03 03:40:20;;;;;;;8.25;6.00;;;;;;;;;;4402484;32;20213;-57
2021/06/03 03:42:46;;;;;;;6.78;5.62;;;;;;;;;;4402709;32;20311;-57
2021/06/03 03:45:14;;;;;;;13.17;6.17;;;;;;;;;;4402765;32;20197;-58
2021/06/03 03:47:40;;;;;;;13.37;6.00;;;;;;;;;;4403011;32;20654;-57
2021/06/03 03:50:07;;;;;;;15.83;6.10;;;;;;;;;;4403307;32;20240;-57
2021/06/03 03:52:33;;;;;;;21.02;8.35;;;;;;;;;;4402866;32;20276;-57
2021/06/03 03:55:01;;;;;;;15.20;8.13;;;;;;;;;;4402130;32;20359;-56
2021/06/03 03:57:28;;;;;;;16.50;8.60;;;;;;;;;;4402541;32;20570;-58
2021/06/03 03:59:53;;;;;;;22.80;8.53;;;;;;;;;;4402603;32;20189;-57
2021/06/03 04:02:19;;;;;;;11.20;7.33;;;;;;;;;;4388214;32;20556;-56
2021/06/03 04:04:44;;;;;;;14.13;8.30;;;;;;;;;;4402012;32;20275;-56
2021/06/03 04:07:10;;;;;;;21.57;11.40;;;;;;;;;;4402307;32;20241;-56
2021/06/03 04:09:35;;;;;;;13.40;7.80;;;;;;;;;;4388689;32;20351;-57
2021/06/03 04:12:01;;;;;;;7.90;5.85;;;;;;;;;;4402728;32;20303;-57
2021/06/03 04:14:27;;;;;;;9.07;5.62;;;;;;;;;;4402228;32;20235;-57
2021/06/03 04:16:52;;;;;;;8.33;6.17;;;;;;;;;;4402295;32;20322;-57
2021/06/03 04:19:18;;;;;;;13.40;5.50;;;;;;;;;;4402487;32;20357;-57
2021/06/03 04:21:43;;;;;;;13.30;5.37;;;;;;;;;;4406783;32;20260;-57
2021/06/03 04:24:09;;;;;;;6.53;5.40;;;;;;;;;;4416985;32;20662;-57
2021/06/03 04:26:36;;;;;;;9.63;5.60;;;;;;;;;;4402970;32;20275;-57
2021/06/03 04:29:01;;;;;;;13.07;6.33;;;;;;;;;;4417316;32;20270;-57
2021/06/03 04:31:27;;;;;;;14.03;6.13;;;;;;;;;;4398766;32;20240;-57
2021/06/03 04:33:52;;;;;;;9.03;6.40;;;;;;;;;;4403249;32;20651;-57
2021/06/03 04:36:18;;;;;;;13.07;7.22;;;;;;;;;;4416998;32;20292;-58
2021/06/03 04:38:43;;;;;;;14.18;6.28;;;;;;;;;;4417484;32;20543;-59
2021/06/03 04:41:09;;;;;;;10.57;6.97;;;;;;;;;;4403559;32;20323;-57
2021/06/03 04:43:34;;;;;;;10.27;6.57;;;;;;;;;;4417369;32;20664;-57
2021/06/03 04:46:00;;;;;;;10.73;7.37;;;;;;;;;;4417202;32;20348;-58
2021/06/03 04:48:26;;;;;;;10.70;6.80;;;;;;;;;;4417614;32;20261;-58
2021/06/03 04:50:51;;;;;;;9.73;6.23;;;;;;;;;;4409794;32;20410;-58
2021/06/03 04:53:18;;;;;;;12.37;6.90;;;;;;;;;;4388588;32;20667;-57
2021/06/03 04:55:44;;;;;;;14.73;6.62;;;;;;;;;;4402147;32;20594;-57
2021/06/03 04:58:10;;;;;;;13.45;7.50;;;;;;;;;;4401418;32;20225;-56
2021/06/03 05:00:39;;;;;;;18.97;8.13;;;;;;;;;;4401783;32;20347;-56
2021/06/03 05:03:05;;;;;;;12.97;6.97;;;;;;;;;;4401600;32;20586;-56
2021/06/03 05:05:32;;;;;;;16.83;7.73;;;;;;;;;;4401868;32;20245;-56
2021/06/03 05:07:57;;;;;;;15.10;6.73;;;;;;;;;;4400611;32;20278;-56
2021/06/03 05:10:25;;;;;;;11.40;7.30;;;;;;;;;;4402050;32;20295;-57
2021/06/03 05:12:51;;;;;;;16.73;7.10;;;;;;;;;;4417726;32;20670;-56
2021/06/03 05:15:18;;;;;;;15.33;7.50;;;;;;;;;;4418507;32;20266;-57
2021/06/03 05:17:44;;;;;;;17.00;7.77;;;;;;;;;;4418234;32;20266;-56
2021/06/03 05:20:12;;;;;;;17.27;7.10;;;;;;;;;;4418438;32;20276;-56
2021/06/03 05:22:38;;;;;;;19.57;8.07;;;;;;;;;;4408623;32;20634;-58
2021/06/03 05:25:06;;;;;;;11.20;8.63;;;;;;;;;;4404815;32;20229;-58
2021/06/03 05:27:31;;;;;;;16.80;10.00;;;;;;;;;;4406757;32;20306;-58
2021/06/03 05:29:57;;;;;;;20.20;12.87;;;;;;;;;;4406408;32;20240;-57
2021/06/03 05:32:23;;;;;;;24.47;11.03;;;;;;;;;;4407323;32;20630;-57
2021/06/03 05:34:48;;;;;;;15.67;10.77;;;;;;;;;;4390410;32;20347;-55
2021/06/03 05:37:14;;;;;;;25.98;13.13;;;;;;;;;;4404325;32;20515;-56
2021/06/03 05:39:39;;;;;;;25.17;13.35;;;;;;;;;;4403762;32;20189;-56
2021/06/03 05:42:05;;;;;;;23.25;13.10;;;;;;;;;;4404599;32;20571;-57
2021/06/03 05:44:31;;;;;;;20.27;13.07;;;;;;;;;;4404663;32;20224;-58
2021/06/03 05:46:56;;;;;;;21.43;11.00;;;;;;;;;;4404987;32;20205;-58
2021/06/03 05:49:22;;;;;;;15.15;11.32;;;;;;;;;;4406165;32;20197;-58
2021/06/03 05:51:47;;;;;;;15.63;10.73;;;;;;;;;;4418355;32;20273;-58
2021/06/03 05:54:13;;;;;;;13.55;9.50;;;;;;;;;;4420505;32;20258;-58
2021/06/03 05:56:39;;;;;;;13.43;8.57;;;;;;;;;;4420534;32;20804;-56
2021/06/03 05:59:05;;;;;;;19.12;8.00;;;;;;;;;;4419616;32;20201;-56
2021/06/03 06:01:31;;;;;;;14.00;6.82;;;;;;;;;;4418306;32;20221;-56
2021/06/03 06:06:31;;;;;;;12.27;5.78;;;;;;;;;;4419178;32;20570;-57
2021/06/03 06:09:04;;;;;;;6.78;5.25;;;;;;;;;;4420723;32;20205;-58
2021/06/03 06:11:33;;;;;;;6.45;4.93;;;;;;;;;;4421184;32;20284;-57
2021/06/03 06:13:59;;;;;;;11.55;5.47;;;;;;;;;;4419367;32;20284;-56
2021/06/03 06:16:24;;;;;;;11.27;5.95;;;;;;;;;;4419071;32;20637;-58
2021/06/03 06:18:49;;;;;;;12.18;5.43;;;;;;;;;;4406159;32;20287;-58
2021/06/03 06:21:17;;;;;;;8.88;5.30;;;;;;;;;;4419168;32;20221;-57
2021/06/03 06:23:43;;;;;;;9.83;5.67;;;;;;;;;;4418015;32;20224;-56
2021/06/03 06:26:09;;;;;;;8.30;4.80;;;;;;;;;;4418867;32;20320;-57
2021/06/03 06:28:35;;;;;;;9.40;5.60;;;;;;;;;;4420407;32;20205;-58
2021/06/03 06:31:02;;;;;;;13.52;6.05;;;;;;;;;;4416416;32;20272;-58
2021/06/03 06:33:28;;;;;;;7.07;6.15;;;;;;;;;;4404804;32;20252;-57
2021/06/03 06:35:54;;;;;;;9.15;5.70;;;;;;;;;;4403565;32;20657;-56
2021/06/03 06:38:21;;;;;;;8.02;6.07;;;;;;;;;;4405588;32;20205;-57
2021/06/03 06:40:47;;;;;;;8.85;5.97;;;;;;;;;;4390734;32;20218;-57
2021/06/03 06:43:14;;;;;;;10.13;6.47;;;;;;;;;;4405536;32;20592;-58
2021/06/03 06:45:39;;;;;;;10.50;6.12;;;;;;;;;;4390781;32;20332;-57
2021/06/03 06:48:08;;;;;;;8.38;5.57;;;;;;;;;;4403280;32;20217;-56
2021/06/03 06:50:35;;;;;;;7.85;5.80;;;;;;;;;;4409017;32;20217;-56
2021/06/03 06:53:01;;;;;;;14.38;6.18;;;;;;;;;;4417458;32;20221;-56
2021/06/03 06:55:27;;;;;;;10.98;6.35;;;;;;;;;;4417798;32;20347;-57
2021/06/03 06:57:54;;;;;;;8.38;4.80;;;;;;;;;;4418722;32;20307;-56
2021/06/03 07:00:22;;;;;;;13.85;6.22;;;;;;;;;;4418477;32;20296;-56
2021/06/03 07:02:49;;;;;;;10.73;6.22;;;;;;;;;;4419376;32;20260;-58
2021/06/03 07:05:15;;;;;;;9.70;5.28;;;;;;;;;;4421481;32;20221;-57
2021/06/03 07:07:41;;;;;;;12.50;5.55;;;;;;;;;;4421638;32;20233;-58
2021/06/03 07:10:08;;;;;;;5.85;4.93;;;;;;;;;;4419663;32;20632;-58
2021/06/03 07:12:34;;;;;;;18.98;6.85;;;;;;;;;;4420146;32;20266;-57
2021/06/03 07:15:00;;;;;;;12.60;5.75;;;;;;;;;;4404717;32;20376;-56
2021/06/03 07:17:26;;;;;;;5.47;4.90;;;;;;;;;;4418399;32;20287;-59
2021/06/03 07:19:52;;;;;;;7.30;4.70;;;;;;;;;;4419102;32;20266;-56
2021/06/03 07:22:18;;;;;;;11.60;5.93;;;;;;;;;;4418628;32;20237;-56
2021/06/03 07:24:45;;;;;;;10.90;5.37;;;;;;;;;;4418595;32;20228;-56
2021/06/03 07:27:10;;;;;;;5.43;4.80;;;;;;;;;;4418785;32;20247;-58
2021/06/03 07:29:36;;;;;;;13.45;4.05;;;;;;;;;;4418730;32;20545;-58
2021/06/03 07:32:01;;;;;;;14.98;5.40;;;;;;;;;;4414019;32;20294;-58
2021/06/03 07:34:28;;;;;;;7.32;4.45;;;;;;;;;;4418808;32;20495;-57
2021/06/03 07:36:54;;;;;;;13.48;5.22;;;;;;;;;;4405384;32;20228;-57
2021/06/03 07:39:21;;;;;;;7.75;3.90;;;;;;;;;;4418414;32;20306;-57
2021/06/03 07:41:47;;;;;;;12.65;5.68;;;;;;;;;;4404595;32;20742;-56
2021/06/03 07:44:12;;;;;;;7.82;5.22;;;;;;;;;;4417876;32;20197;-57
2021/06/03 07:46:39;;;;;;;7.22;4.37;;;;;;;;;;4418042;32;20522;-57
2021/06/03 07:49:05;;;;;;;9.00;4.68;;;;;;;;;;4418331;32;20201;-57
2021/06/03 07:51:30;;;;;;;9.38;5.43;;;;;;;;;;4391769;32;20290;-57
2021/06/03 07:53:56;;;;;;;13.45;6.82;;;;;;;;;;4402825;32;20637;-56
2021/06/03 07:56:22;;;;;;;13.10;5.87;;;;;;;;;;4404045;32;20605;-58
2021/06/03 07:58:47;;;;;;;24.00;6.37;;;;;;;;;;4403462;32;20202;-57
2021/06/03 08:01:13;;;;;;;13.32;4.75;;;;;;;;;;4402789;32;20313;-56
2021/06/03 08:03:38;;;;;;;13.68;4.85;;;;;;;;;;4402886;32;20280;-56
2021/06/03 08:06:04;;;;;;;7.10;5.47;;;;;;;;;;4402681;32;20308;-57
2021/06/03 08:08:35;;;;;;;16.00;5.15;;;;;;;;;;4402839;32;20240;-57
2021/06/03 08:11:02;;;;;;;11.90;4.60;;;;;;;;;;4401828;32;20216;-57
2021/06/03 08:13:27;;;;;;;13.65;4.65;;;;;;;;;;4401949;32;20284;-58
2021/06/03 08:15:53;;;;;;;9.65;5.32;;;;;;;;;;4409839;32;20594;-57
2021/06/03 08:18:18;;;;;;;7.95;5.15;;;;;;;;;;4418242;32;20205;-57
2021/06/03 08:20:48;;;;;;;8.38;4.85;;;;;;;;;;4417915;32;20703;-57
2021/06/03 08:23:15;;;;;;;13.05;4.60;;;;;;;;;;4417333;32;20206;-58
2021/06/03 08:25:42;;;;;;;5.45;4.25;;;;;;;;;;4417967;32;20551;-58
2021/06/03 08:28:08;;;;;;;8.10;4.18;;;;;;;;;;4419110;32;20240;-58
2021/06/03 08:30:34;;;;;;;5.10;3.62;;;;;;;;;;4413142;32;20763;-57
2021/06/03 08:33:01;;;;;;;9.45;3.87;;;;;;;;;;4418092;32;20638;-58
2021/06/03 08:35:26;;;;;;;10.68;2.92;;;;;;;;;;4417834;32;20317;-57
2021/06/03 08:37:57;;;;;;;8.48;3.70;;;;;;;;;;4417201;32;20631;-57
2021/06/03 08:40:28;;;;;;;6.60;2.20;;;;;;;;;;4417606;32;20225;-57
2021/06/03 08:42:56;;;;;;;7.10;2.67;;;;;;;;;;4418143;32;20282;-57
2021/06/03 08:45:24;;;;;;;5.60;2.83;;;;;;;;;;4417673;32;20193;-58
2021/06/03 08:47:54;;;;;;;6.47;2.67;;;;;;;;;;4419813;32;20624;-58
2021/06/03 08:50:20;;;;;;;5.22;2.78;;;;;;;;;;4415791;32;20395;-57
2021/06/03 08:52:46;;;;;;;4.80;2.10;;;;;;;;;;4405306;32;20365;-58
2021/06/03 08:58:03;;;;;;;5.05;2.47;;;;;;;;;;4405846;32;20383;-56
2021/06/03 09:00:28;;;;;;;5.40;2.20;;;;;;;;;;4404847;32;20296;-58
2021/06/03 09:02:54;;;;;;;3.70;2.67;;;;;;;;;;4405309;32;20257;-56
2021/06/03 09:05:19;;;;;;;4.20;2.53;;;;;;;;;;4404915;32;20259;-56
2021/06/03 09:07:45;;;;;;;5.43;2.15;;;;;;;;;;4404964;32;20251;-57
2021/06/03 09:10:29;;;;;;;11.07;2.42;;;;;;;;;;4405174;32;20727;-56
2021/06/03 09:13:16;;;;;;;3.03;2.30;;;;;;;;;;4404580;32;20320;-56
2021/06/03 09:15:44;;;;;;;5.75;2.50;;;;;;;;;;4409772;32;20205;-57
2021/06/03 09:18:10;;;;;;;3.12;2.33;;;;;;;;;;4405192;32;20233;-56
2021/06/03 09:20:37;;;;;;;3.33;2.05;;;;;;;;;;4405084;32;20387;-58
2021/06/03 09:23:03;;;;;;;4.05;1.98;;;;;;;;;;4391415;32;20304;-57
2021/06/03 09:25:33;;;;;;;2.80;2.15;;;;;;;;;;4405409;32;20378;-58
2021/06/03 09:28:29;;;;;;;8.02;2.50;;;;;;;;;;4413747;32;20308;-56
2021/06/03 09:30:57;;;;;;;8.07;4.35;;;;;;;;;;4416643;32;20198;-56
2021/06/03 09:33:51;;;;;;;7.15;2.15;;;;;;;;;;4405444;32;20221;-57
2021/06/03 09:36:44;;;;;;;4.05;2.72;;;;;;;;;;4405547;32;20213;-58
2021/06/03 09:39:31;;;;;;;3.67;2.08;;;;;;;;;;4405850;32;20276;-58
2021/06/03 09:42:00;;;;;;;2.97;2.17;;;;;;;;;;4405240;32;20684;-57
2021/06/03 09:44:30;;;;;;;6.22;2.58;;;;;;;;;;4405341;32;20301;-58
2021/06/03 09:47:06;;;;;;;4.97;2.12;;;;;;;;;;4405488;32;20530;-56
2021/06/03 09:49:34;;;;;;;8.10;2.65;;;;;;;;;;4391066;32;20350;-57
2021/06/03 09:52:04;;;;;;;10.57;1.92;;;;;;;;;;4405032;32;20273;-57
2021/06/03 09:54:31;;;;;;;3.90;2.33;;;;;;;;;;4404399;32;20667;-56
2021/06/03 09:57:10;;;;;;;5.75;2.80;;;;;;;;;;4405123;32;20285;-57
2021/06/03 09:59:47;;;;;;;7.35;2.00;;;;;;;;;;4405470;32;20325;-57
2021/06/03 10:02:18;;;;;;;4.12;1.67;;;;;;;;;;4405255;32;20243;-56
2021/06/03 10:04:46;;;;;;;2.87;1.73;;;;;;;;;;4404344;32;20210;-56
2021/06/03 10:07:32;;;;;;;4.45;2.10;;;;;;;;;;4404501;32;20209;-56
2021/06/03 10:10:10;;;;;;;10.32;1.90;;;;;;;;;;4404576;32;20251;-57
2021/06/03 10:12:43;;;;;;;6.72;2.05;;;;;;;;;;4404660;32;20236;-56
2021/06/03 10:15:21;;;;;;;5.00;1.60;;;;;;;;;;4405015;32;20409;-57
2021/06/03 10:18:03;;;;;;;4.10;2.80;;;;;;;;;;4419208;32;20318;-58
2021/06/03 10:20:35;;;;;;;4.30;1.90;;;;;;;;;;4419461;32;20260;-57
2021/06/03 10:23:01;;;;;;;11.02;2.00;;;;;;;;;;4419680;32;20248;-58
2021/06/03 10:25:30;;;;;;;4.03;2.10;;;;;;;;;;4419299;32;20276;-58
2021/06/03 10:28:02;;;;;;;3.00;1.45;;;;;;;;;;4419856;32;20221;-56
2021/06/03 10:30:40;;;;;;;14.00;2.55;;;;;;;;;;4414682;32;20239;-56
2021/06/03 10:33:20;;;;;;;9.68;1.90;;;;;;;;;;4420418;32;20672;-58
2021/06/03 10:35:48;;;;;;;3.45;1.85;;;;;;;;;;4420798;32;20352;-56
2021/06/03 10:38:14;;;;;;;4.75;1.62;;;;;;;;;;4406581;32;20197;-56
2021/06/03 10:40:52;;;;;;;2.22;1.60;;;;;;;;;;4420228;32;20704;-58
2021/06/03 10:43:18;;;;;;;4.00;1.98;;;;;;;;;;4405980;32;20222;-56
2021/06/03 10:45:44;;;;;;;7.32;2.08;;;;;;;;;;4419194;32;20323;-56
2021/06/03 10:48:10;;;;;;;5.43;1.90;;;;;;;;;;4405818;32;20351;-57
2021/06/03 10:50:45;;;;;;;6.97;2.10;;;;;;;;;;4419166;32;20724;-57
2021/06/03 10:53:13;;;;;;;4.57;1.83;;;;;;;;;;4419558;32;20248;-57
2021/06/03 10:55:42;;;;;;;8.13;1.92;;;;;;;;;;4419572;32;20559;-57
2021/06/03 10:58:10;;;;;;;4.90;1.80;;;;;;;;;;4419656;32;20771;-57
2021/06/03 11:00:37;;;;;;;5.10;1.77;;;;;;;;;;4419589;32;20272;-56
2021/06/03 11:03:07;;;;;;;8.90;2.37;;;;;;;;;;4419773;32;20733;-57
2021/06/03 11:05:38;;;;;;;2.92;1.70;;;;;;;;;;4419351;32;20221;-57
2021/06/03 11:08:22;;;;;;;4.45;1.98;;;;;;;;;;4419707;32;20234;-56
2021/06/03 11:10:47;;;;;;;6.00;1.60;;;;;;;;;;4418865;32;20193;-56
2021/06/03 11:13:16;;;;;;;9.82;1.60;;;;;;;;;;4420040;32;20251;-56
2021/06/03 11:16:02;;;;;;;2.17;1.45;;;;;;;;;;4419252;32;20205;-57
2021/06/03 11:19:02;;;;;;;4.47;1.48;;;;;;;;;;4419086;32;20277;-57
2021/06/03 11:21:31;;;;;;;6.55;1.90;;;;;;;;;;4419853;32;20239;-57
2021/06/03 11:23:57;;;;;;;6.07;2.10;;;;;;;;;;4419451;32;20194;-58
2021/06/03 11:26:47;;;;;;;4.05;1.73;;;;;;;;;;4419418;32;20259;-57
2021/06/03 11:29:28;;;;;;;4.05;2.03;;;;;;;;;;4398875;32;20221;-57
2021/06/03 11:32:06;;;;;;;1.80;1.70;;;;;;;;;;4418863;32;20255;-57
2021/06/03 11:34:40;;;;;;;3.25;2.08;;;;;;;;;;4419431;32;20242;-58
2021/06/03 11:37:16;;;;;;;4.07;1.65;;;;;;;;;;4419153;32;20242;-56
2021/06/03 11:39:45;;;;;;;3.67;1.80;;;;;;;;;;4419630;32;20204;-57
2021/06/03 11:42:34;;;;;;;6.72;1.98;;;;;;;;;;4419628;32;20533;-58
2021/06/03 11:45:03;;;;;;;2.35;1.55;;;;;;;;;;4418951;32;20579;-57
2021/06/03 11:47:37;;;;;;;8.13;1.87;;;;;;;;;;4405256;32;20292;-62
2021/06/03 11:50:14;;;;;;;4.70;1.80;;;;;;;;;;4415581;32;20217;-57
2021/06/03 11:53:00;;;;;;;3.25;1.73;;;;;;;;;;4404029;32;20590;-58
2021/06/03 11:55:33;;;;;;;5.53;1.73;;;;;;;;;;4393086;32;20213;-57
2021/06/03 11:58:11;;;;;;;5.00;1.42;;;;;;;;;;4404517;32;20629;-57
2021/06/03 12:00:50;;;;;;;2.67;2.03;;;;;;;;;;4404155;32;20662;-58
2021/06/03 12:03:39;;;;;;;5.68;1.62;;;;;;;;;;4404177;32;20197;-57
2021/06/03 12:06:05;;;;;;;2.72;1.60;;;;;;;;;;4375621;32;20240;-57
2021/06/03 12:08:32;;;;;;;5.70;1.80;;;;;;;;;;4390113;32;20241;-58
2021/06/03 12:10:58;;;;;;;2.35;1.35;;;;;;;;;;4403997;32;20209;-57
2021/06/03 12:13:23;;;;;;;3.40;1.75;;;;;;;;;;4403384;32;20205;-57
2021/06/03 12:15:49;;;;;;;7.32;1.92;;;;;;;;;;4405717;32;20485;-58
2021/06/03 12:18:14;;;;;;;8.10;2.22;;;;;;;;;;4404706;32;20310;-57
2021/06/03 12:20:40;;;;;;;6.28;2.15;;;;;;;;;;4418423;32;20274;-58
2021/06/03 12:23:09;;;;;;;7.82;1.80;;;;;;;;;;4417994;32;20224;-57
2021/06/03 12:25:43;;;;;;;4.47;1.40;;;;;;;;;;4418093;32;20197;-58
2021/06/03 12:28:10;;;;;;;6.80;2.10;;;;;;;;;;4408687;32;20300;-57
2021/06/03 12:30:39;;;;;;;5.40;2.03;;;;;;;;;;4410052;32;20213;-58
2021/06/03 12:33:29;;;;;;;4.60;1.80;;;;;;;;;;4418784;32;20225;-57
2021/06/03 12:36:01;;;;;;;9.13;2.10;;;;;;;;;;4418654;32;20273;-57
2021/06/03 12:38:42;;;;;;;3.12;1.80;;;;;;;;;;4418792;32;20231;-57
2021/06/03 12:41:30;;;;;;;3.12;1.75;;;;;;;;;;4418688;32;20243;-58
2021/06/03 12:44:09;;;;;;;4.65;2.25;;;;;;;;;;4418418;32;20254;-57
2021/06/03 12:46:38;;;;;;;5.72;1.62;;;;;;;;;;4418533;32;20221;-57
2021/06/03 12:49:19;;;;;;;5.80;1.98;;;;;;;;;;4419164;32;20233;-57
2021/06/03 12:51:53;;;;;;;5.45;2.08;;;;;;;;;;4404943;32;20641;-58
2021/06/03 12:54:29;;;;;;;7.75;2.33;;;;;;;;;;4403172;32;20280;-58
2021/06/03 12:56:58;;;;;;;7.97;1.65;;;;;;;;;;4403432;32;20626;-58
2021/06/03 12:59:24;;;;;;;4.37;1.87;;;;;;;;;;4403246;32;20624;-57
2021/06/03 13:02:04;;;;;;;3.35;1.83;;;;;;;;;;4403210;32;20307;-58
2021/06/03 13:04:41;;;;;;;3.67;1.85;;;;;;;;;;4402763;32;20287;-58
2021/06/03 13:07:08;;;;;;;5.70;3.05;;;;;;;;;;4403007;32;20284;-59
2021/06/03 13:09:35;;;;;;;3.37;1.55;;;;;;;;;;4403248;32;20235;-56
2021/06/03 13:12:12;;;;;;;6.40;1.77;;;;;;;;;;4403015;32;20251;-58
2021/06/03 13:14:38;;;;;;;5.75;1.95;;;;;;;;;;4389507;32;20267;-58
2021/06/03 13:17:09;;;;;;;5.55;1.87;;;;;;;;;;4412561;32;20569;-58
2021/06/03 13:19:35;;;;;;;4.95;2.05;;;;;;;;;;4417889;32;20560;-57
2021/06/03 13:22:02;;;;;;;5.40;1.85;;;;;;;;;;4418090;32;20289;-57
2021/06/03 13:24:39;;;;;;;2.25;1.85;;;;;;;;;;4418161;32;20238;-57
2021/06/03 13:27:34;;;;;;;4.10;2.08;;;;;;;;;;4417954;32;20234;-57
2021/06/03 13:30:10;;;;;;;6.40;1.92;;;;;;;;;;4399023;32;20225;-58
2021/06/03 13:32:36;;;;;;;4.12;1.85;;;;;;;;;;4416876;32;20338;-57
2021/06/03 13:35:04;;;;;;;3.28;1.62;;;;;;;;;;4420142;32;20240;-57
2021/06/03 13:37:32;;;;;;;5.97;1.98;;;;;;;;;;4420036;32;20397;-58
2021/06/03 13:40:00;;;;;;;6.97;1.90;;;;;;;;;;4420697;32;20617;-57
2021/06/03 13:42:30;;;;;;;5.30;2.28;;;;;;;;;;4420431;32;20291;-57
2021/06/03 13:45:00;;;;;;;5.50;1.67;;;;;;;;;;4420252;32;20202;-58
2021/06/03 13:47:38;;;;;;;4.40;1.92;;;;;;;;;;4420338;32;20586;-58
2021/06/03 13:50:17;;;;;;;3.55;1.55;;;;;;;;;;4403284;32;20237;-57
2021/06/03 13:52:48;;;;;;;1.77;1.37;;;;;;;;;;4405324;32;20197;-57
2021/06/03 13:55:22;;;;;;;2.65;1.92;;;;;;;;;;4404939;32;20335;-58
2021/06/03 13:57:48;;;;;;;3.60;2.00;;;;;;;;;;4391031;32;20646;-58
2021/06/03 14:00:30;;;;;;;2.58;1.85;;;;;;;;;;4404824;32;20272;-58
2021/06/03 14:03:08;;;;;;;9.73;2.08;;;;;;;;;;4404798;32;20213;-56
2021/06/03 14:05:35;;;;;;;7.47;2.35;;;;;;;;;;4404832;32;20213;-57
2021/06/03 14:08:10;;;;;;;4.40;2.47;;;;;;;;;;4404700;32;20310;-57
2021/06/03 14:11:22;;;;;;;5.00;1.62;;;;;;;;;;4405463;32;20784;-59
2021/06/03 14:13:55;;;;;;;2.33;1.55;;;;;;;;;;4405464;32;20197;-58
2021/06/03 14:16:53;;;;;;;5.50;2.03;;;;;;;;;;4409803;32;20251;-57
2021/06/03 14:19:20;;;;;;;5.53;1.90;;;;;;;;;;4393809;32;20720;-58
2021/06/03 14:21:55;;;;;;;4.45;2.00;;;;;;;;;;4419932;32;20280;-60
2021/06/03 14:24:32;;;;;;;3.17;1.90;;;;;;;;;;4420256;32;20204;-57
2021/06/03 14:27:24;;;;;;;8.32;2.00;;;;;;;;;;4420505;32;20213;-57
2021/06/03 14:30:02;;;;;;;4.70;1.90;;;;;;;;;;4418513;32;20265;-57
2021/06/03 14:32:28;;;;;;;8.75;2.50;;;;;;;;;;4417722;32;20229;-56
2021/06/03 14:34:55;;;;;;;6.25;2.10;;;;;;;;;;4419410;32;20272;-57
2021/06/03 14:37:27;;;;;;;6.62;2.35;;;;;;;;;;4419833;32;20270;-57
2021/06/03 14:39:56;;;;;;;3.83;2.03;;;;;;;;;;4419490;32;20625;-57
2021/06/03 14:42:26;;;;;;;4.07;2.25;;;;;;;;;;4419914;32;20693;-58
2021/06/03 14:44:57;;;;;;;6.93;2.00;;;;;;;;;;4418740;32;20227;-58
2021/06/03 14:47:24;;;;;;;6.55;2.12;;;;;;;;;;4419750;32;20270;-58
2021/06/03 14:49:51;;;;;;;2.80;2.08;;;;;;;;;;4417786;32;20692;-58
2021/06/03 14:52:36;;;;;;;12.27;2.97;;;;;;;;;;4404284;32;20214;-58
2021/06/03 14:55:06;;;;;;;5.47;1.95;;;;;;;;;;4404659;32;20294;-58
2021/06/03 14:57:33;;;;;;;3.67;2.17;;;;;;;;;;4389350;32;20640;-58